createdAt,value
2023-05-10T00:00:12.642Z,3.20
2023-05-10T00:02:44.887Z,2.95
2023-05-10T00:05:12.269Z,3.00
2023-05-10T00:07:39.631Z,2.88
2023-05-10T00:10:07.193Z,3.38
2023-05-10T00:12:34.698Z,3.75
2023-05-10T00:15:02.083Z,3.15
2023-05-10T00:17:29.358Z,3.72
2023-05-10T00:19:56.634Z,3.20
2023-05-10T00:22:24.190Z,3.13
2023-05-10T00:24:51.579Z,3.42
2023-05-10T00:27:19.133Z,3.38
2023-05-10T00:29:46.423Z,3.22
2023-05-10T00:32:15.181Z,2.92
2023-05-10T00:34:42.540Z,2.90
2023-05-10T00:37:09.924Z,3.22
2023-05-10T00:39:37.368Z,3.33
2023-05-10T00:42:05.656Z,3.40
2023-05-10T00:44:34.091Z,3.50
2023-05-10T00:47:01.765Z,2.90
2023-05-10T00:49:29.984Z,3.58
2023-05-10T00:51:57.626Z,3.33
2023-05-10T00:54:25.280Z,3.40
2023-05-10T00:56:53.125Z,3.22
2023-05-10T00:59:21.251Z,3.28
2023-05-10T01:01:48.794Z,3.63
2023-05-10T01:04:16.445Z,3.10
2023-05-10T01:06:44.238Z,3.58
2023-05-10T01:09:12.874Z,3.80
2023-05-10T01:11:41.199Z,3.40
2023-05-10T01:14:09.081Z,3.08
2023-05-10T01:16:42.111Z,3.40
2023-05-10T01:19:18.772Z,3.45
2023-05-10T01:22:11.305Z,3.78
2023-05-10T01:25:11.480Z,3.20
2023-05-10T01:28:00.265Z,3.42
2023-05-10T01:30:58.530Z,3.13
2023-05-10T01:33:44.304Z,3.13
2023-05-10T01:36:27.395Z,3.40
2023-05-10T01:39:09.390Z,3.70
2023-05-10T01:41:59.937Z,3.50
2023-05-10T01:45:03.843Z,3.80
2023-05-10T01:47:38.603Z,3.60
2023-05-10T01:50:14.020Z,3.63
2023-05-10T01:52:46.574Z,3.95
2023-05-10T01:55:17.298Z,3.47
2023-05-10T01:57:47.571Z,3.97
2023-05-10T02:02:48.921Z,3.85
2023-05-10T02:05:19.126Z,3.60
2023-05-10T02:07:46.999Z,4.00
2023-05-10T02:10:16.137Z,3.83
2023-05-10T02:12:47.180Z,3.88
2023-05-10T02:15:20.412Z,4.07
2023-05-10T02:17:48.496Z,4.10
2023-05-10T02:20:18.569Z,3.78
2023-05-10T02:22:48.563Z,4.00
2023-05-10T02:25:17.338Z,3.80
2023-05-10T02:27:46.039Z,3.83
2023-05-10T02:30:14.384Z,3.63
2023-05-10T02:32:43.326Z,3.72
2023-05-10T02:35:12.051Z,3.80
2023-05-10T02:37:41.284Z,4.18
2023-05-10T02:40:09.846Z,3.78
2023-05-10T02:42:39.386Z,3.80
2023-05-10T02:45:12.404Z,4.00
2023-05-10T02:47:40.496Z,4.18
2023-05-10T02:50:08.548Z,4.10
2023-05-10T02:52:43.680Z,3.90
2023-05-10T02:55:13.314Z,3.85
2023-05-10T02:57:47.920Z,3.95
2023-05-10T03:00:15.506Z,3.80
2023-05-10T03:02:43.162Z,3.67
2023-05-10T03:05:10.631Z,4.05
2023-05-10T03:07:38.125Z,3.72
2023-05-10T03:10:06.484Z,3.90
2023-05-10T03:12:54.303Z,4.07
2023-05-10T03:15:43.629Z,3.72
2023-05-10T03:18:17.232Z,3.80
2023-05-10T03:20:48.552Z,3.97
2023-05-10T03:23:18.979Z,3.95
2023-05-10T03:25:49.293Z,4.35
2023-05-10T03:28:18.098Z,3.70
2023-05-10T03:30:46.949Z,3.90
2023-05-10T03:33:15.152Z,4.00
2023-05-10T03:35:47.035Z,4.40
2023-05-10T03:38:15.283Z,3.63
2023-05-10T03:40:42.618Z,3.65
2023-05-10T03:43:10.021Z,3.75
2023-05-10T03:45:37.478Z,3.97
2023-05-10T03:48:05.307Z,3.80
2023-05-10T03:50:32.812Z,4.05
2023-05-10T03:53:00.231Z,4.50
2023-05-10T03:55:29.892Z,3.80
2023-05-10T03:57:57.511Z,4.03
2023-05-10T04:00:24.973Z,3.88
2023-05-10T04:02:55.060Z,3.85
2023-05-10T04:05:23.661Z,4.43
2023-05-10T04:07:52.851Z,4.03
2023-05-10T04:10:20.213Z,3.92
2023-05-10T04:12:47.640Z,4.40
2023-05-10T04:15:15.083Z,4.00
2023-05-10T04:17:42.437Z,4.15
2023-05-10T04:20:10.400Z,3.83
2023-05-10T04:22:37.758Z,4.40
2023-05-10T04:25:05.907Z,3.83
2023-05-10T04:27:33.364Z,4.28
2023-05-10T04:30:00.728Z,3.85
2023-05-10T04:32:28.066Z,4.00
2023-05-10T04:34:55.329Z,4.20
2023-05-10T04:37:24.173Z,4.35
2023-05-10T04:39:51.424Z,4.18
2023-05-10T04:42:18.867Z,4.00
2023-05-10T04:44:46.243Z,3.90
2023-05-10T04:47:14.340Z,4.32
2023-05-10T04:49:41.567Z,3.83
2023-05-10T04:52:08.785Z,3.65
2023-05-10T04:54:36.069Z,4.03
2023-05-10T04:57:03.445Z,4.00
2023-05-10T04:59:30.756Z,4.18
2023-05-10T05:01:57.987Z,4.15
2023-05-10T05:04:25.384Z,3.97
2023-05-10T05:06:54.028Z,4.15
2023-05-10T05:09:21.514Z,3.90
2023-05-10T05:11:48.858Z,3.92
2023-05-10T05:14:16.228Z,4.25
2023-05-10T05:16:43.542Z,3.90
2023-05-10T05:19:10.845Z,4.05
2023-05-10T05:21:38.560Z,3.60
2023-05-10T05:24:06.269Z,3.72
2023-05-10T05:26:33.635Z,3.33
2023-05-10T05:29:00.916Z,4.07
2023-05-10T05:31:28.340Z,3.92
2023-05-10T05:33:56.568Z,4.10
2023-05-10T05:36:23.983Z,3.67
2023-05-10T05:38:51.395Z,3.78
2023-05-10T05:41:18.806Z,3.58
2023-05-10T05:43:46.156Z,4.03
2023-05-10T05:46:14.564Z,3.90
2023-05-10T05:48:41.969Z,3.78
2023-05-10T05:51:09.339Z,4.10
2023-05-10T05:53:36.598Z,3.40
2023-05-10T05:56:04.863Z,4.03
2023-05-10T05:58:32.234Z,3.70
2023-05-10T06:00:59.578Z,3.70
2023-05-10T06:03:27.077Z,3.40
2023-05-10T06:05:54.412Z,3.55
2023-05-10T06:08:21.838Z,3.63
2023-05-10T06:10:49.241Z,3.40
2023-05-10T06:13:16.738Z,3.40
2023-05-10T06:15:44.110Z,3.75
2023-05-10T06:18:11.233Z,3.60
2023-05-10T06:20:38.862Z,3.72
2023-05-10T06:23:06.209Z,3.63
2023-05-10T06:25:33.585Z,3.55
2023-05-10T06:28:01.124Z,3.53
2023-05-10T06:30:30.317Z,4.00
2023-05-10T06:32:58.203Z,3.35
2023-05-10T06:35:25.793Z,3.20
2023-05-10T06:37:53.498Z,3.72
2023-05-10T06:40:21.109Z,4.07
2023-05-10T06:42:49.507Z,3.40
2023-05-10T06:45:17.663Z,3.22
2023-05-10T06:47:45.214Z,3.60
2023-05-10T06:50:12.893Z,3.17
2023-05-10T06:52:40.373Z,3.70
2023-05-10T06:55:08.271Z,3.60
2023-05-10T06:57:35.810Z,3.40
2023-05-10T07:00:06.043Z,3.60
2023-05-10T07:02:33.787Z,3.25
2023-05-10T07:05:03.168Z,3.05
2023-05-10T07:07:31.100Z,3.60
2023-05-10T07:09:58.916Z,3.20
2023-05-10T07:12:26.883Z,3.10
2023-05-10T07:14:54.412Z,3.13
2023-05-10T07:17:22.014Z,3.30
2023-05-10T07:19:49.651Z,3.00
2023-05-10T07:22:18.035Z,3.55
2023-05-10T07:24:45.468Z,3.67
2023-05-10T07:27:14.181Z,3.20
2023-05-10T07:29:41.636Z,2.97
2023-05-10T07:32:09.147Z,3.85
2023-05-10T07:34:36.605Z,3.28
2023-05-10T07:37:04.038Z,3.30
2023-05-10T07:39:31.459Z,2.95
2023-05-10T07:41:58.870Z,3.10
2023-05-10T07:44:26.456Z,3.17
2023-05-10T07:46:53.999Z,3.30
2023-05-10T07:49:21.454Z,3.17
2023-05-10T07:51:49.068Z,3.17
2023-05-10T07:54:16.501Z,3.10
2023-05-10T07:56:48.192Z,2.80
2023-05-10T07:59:18.983Z,2.70
2023-05-10T08:01:46.455Z,3.05
2023-05-10T08:04:14.060Z,3.22
2023-05-10T08:06:41.697Z,2.95
2023-05-10T08:09:09.841Z,2.88
2023-05-10T08:11:37.201Z,3.00
2023-05-10T08:14:04.638Z,2.90
2023-05-10T08:16:32.061Z,3.28
2023-05-10T08:18:59.493Z,3.33
2023-05-10T08:21:27.491Z,2.75
2023-05-10T08:23:54.902Z,2.80
2023-05-10T08:26:22.913Z,2.58
2023-05-10T08:28:50.221Z,2.80
2023-05-10T08:31:17.705Z,2.42
2023-05-10T08:33:45.049Z,2.70
2023-05-10T08:36:12.509Z,2.75
2023-05-10T08:38:39.810Z,3.20
2023-05-10T08:41:07.750Z,2.45
2023-05-10T08:43:37.782Z,2.85
2023-05-10T08:46:06.796Z,2.90
2023-05-10T08:48:36.693Z,2.80
2023-05-10T08:51:05.197Z,2.88
2023-05-10T08:53:34.379Z,3.20
2023-05-10T08:56:05.288Z,2.60
2023-05-10T08:58:33.148Z,2.78
2023-05-10T09:01:02.251Z,2.80
2023-05-10T09:03:29.895Z,2.53
2023-05-10T09:05:57.452Z,2.90
2023-05-10T09:08:28.255Z,2.40
2023-05-10T09:10:59.259Z,2.58
2023-05-10T09:13:27.214Z,2.67
2023-05-10T09:15:54.989Z,2.40
2023-05-10T09:18:22.433Z,2.03
2023-05-10T09:20:50.604Z,2.70
2023-05-10T09:23:17.978Z,2.50
2023-05-10T09:25:45.420Z,2.38
2023-05-10T09:28:13.379Z,2.45
2023-05-10T09:30:40.931Z,2.55
2023-05-10T09:33:09.284Z,2.50
2023-05-10T09:35:37.283Z,2.40
2023-05-10T09:38:06.258Z,2.63
2023-05-10T09:40:33.676Z,2.60
2023-05-10T09:43:10.061Z,2.55
2023-05-10T09:45:39.123Z,2.30
2023-05-10T09:48:07.845Z,2.53
2023-05-10T09:50:35.608Z,2.50
2023-05-10T09:53:04.878Z,2.33
2023-05-10T09:55:47.184Z,2.33
2023-05-10T09:58:15.506Z,2.10
2023-05-10T10:00:49.084Z,2.60
2023-05-10T10:03:18.459Z,2.55
2023-05-10T10:05:47.256Z,2.50
2023-05-10T10:08:15.454Z,2.30
2023-05-10T10:10:46.520Z,2.13
2023-05-10T10:13:14.610Z,2.08
2023-05-10T10:15:43.766Z,2.40
2023-05-10T10:18:16.550Z,2.40
2023-05-10T10:20:44.043Z,2.80
2023-05-10T10:23:11.366Z,2.72
2023-05-10T10:25:39.471Z,2.20
2023-05-10T10:28:36.860Z,2.33
2023-05-10T10:31:20.411Z,2.38
2023-05-10T10:34:10.744Z,2.35
2023-05-10T10:39:13.112Z,2.58
2023-05-10T10:41:53.750Z,2.30
2023-05-10T10:44:26.506Z,2.78
2023-05-10T10:47:12.739Z,2.70
2023-05-10T10:49:43.062Z,2.83
2023-05-10T10:52:24.867Z,2.92
2023-05-10T10:54:53.926Z,2.45
2023-05-10T10:57:24.677Z,2.30
2023-05-10T10:59:52.139Z,2.78
2023-05-10T11:02:50.109Z,2.85
2023-05-10T11:05:36.700Z,2.63
2023-05-10T11:08:16.096Z,2.72
2023-05-10T11:11:10.717Z,2.80
2023-05-10T11:13:43.485Z,2.50
2023-05-10T11:16:17.684Z,2.70
2023-05-10T11:19:03.383Z,2.70
2023-05-10T11:21:35.119Z,2.53
2023-05-10T11:24:07.080Z,2.85
2023-05-10T11:26:38.450Z,2.78
2023-05-10T11:29:06.275Z,2.38
2023-05-10T11:31:34.101Z,2.40
2023-05-10T11:34:03.142Z,2.95
2023-05-10T11:36:35.076Z,2.40
2023-05-10T11:39:02.398Z,2.50
2023-05-10T11:41:31.159Z,2.70
2023-05-10T11:43:59.288Z,2.17
2023-05-10T11:46:28.726Z,2.78
2023-05-10T11:49:02.954Z,2.80
2023-05-10T11:51:30.401Z,2.67
2023-05-10T11:53:58.556Z,3.25
2023-05-10T11:56:28.234Z,2.72
2023-05-10T11:58:57.980Z,2.60
2023-05-10T12:01:27.654Z,2.88
2023-05-10T12:03:56.551Z,2.58
2023-05-10T12:06:24.355Z,2.55
2023-05-10T12:08:54.896Z,2.42
2023-05-10T12:11:26.627Z,2.60
2023-05-10T12:13:54.383Z,2.90
2023-05-10T12:16:23.556Z,2.97
2023-05-10T12:18:52.364Z,2.88
2023-05-10T12:21:21.152Z,3.08
2023-05-10T12:23:51.357Z,2.70
2023-05-10T12:26:19.012Z,2.42
2023-05-10T12:28:46.548Z,2.67
2023-05-10T12:31:14.007Z,2.67
2023-05-10T12:33:45.771Z,2.85
2023-05-10T12:36:15.385Z,2.47
2023-05-10T12:38:44.973Z,2.80
2023-05-10T12:41:19.353Z,2.33
2023-05-10T12:43:47.666Z,2.75
2023-05-10T12:46:19.809Z,2.50
2023-05-10T12:48:57.565Z,2.97
2023-05-10T12:51:31.883Z,2.78
2023-05-10T12:53:59.145Z,2.55
2023-05-10T12:56:26.920Z,2.92
2023-05-10T12:58:54.289Z,2.75
2023-05-10T13:01:21.790Z,2.58
2023-05-10T13:03:49.231Z,3.20
2023-05-10T13:06:16.578Z,2.63
2023-05-10T13:08:44.169Z,2.45
2023-05-10T13:11:11.706Z,2.75
2023-05-10T13:13:39.303Z,2.47
2023-05-10T13:16:06.907Z,2.40
2023-05-10T13:18:34.390Z,2.20
2023-05-10T13:21:01.806Z,2.10
2023-05-10T13:23:29.136Z,2.50
2023-05-10T13:25:56.652Z,2.30
2023-05-10T13:28:23.896Z,2.08
2023-05-10T13:30:51.611Z,2.40
2023-05-10T13:33:19.068Z,2.60
2023-05-10T13:35:46.664Z,1.98
2023-05-10T13:38:14.927Z,1.90
2023-05-10T13:40:42.418Z,2.50
2023-05-10T13:43:09.853Z,2.30
2023-05-10T13:45:37.299Z,2.33
2023-05-10T13:48:05.035Z,2.08
2023-05-10T13:50:32.777Z,2.42
2023-05-10T13:53:00.193Z,2.00
2023-05-10T13:58:12.811Z,1.95
2023-05-10T14:00:40.469Z,2.05
2023-05-10T14:03:10.522Z,2.03
2023-05-10T14:05:38.505Z,2.25
2023-05-10T14:08:06.255Z,2.13
2023-05-10T14:10:34.122Z,2.22
2023-05-10T14:13:01.720Z,2.30
2023-05-10T14:15:29.463Z,1.98
2023-05-10T14:17:57.216Z,2.17
2023-05-10T14:20:24.898Z,2.30
2023-05-10T14:22:52.318Z,2.10
2023-05-10T14:25:20.192Z,2.13
2023-05-10T14:27:48.519Z,1.92
2023-05-10T14:30:16.228Z,2.28
2023-05-10T14:32:44.054Z,2.30
2023-05-10T14:35:13.393Z,2.10
2023-05-10T14:37:40.886Z,2.73
2023-05-10T14:40:09.099Z,2.28
2023-05-10T14:42:36.703Z,2.03
2023-05-10T14:45:05.023Z,2.40
2023-05-10T14:47:32.409Z,2.30
2023-05-10T14:49:59.823Z,2.58
2023-05-10T14:55:12.539Z,2.10
2023-05-10T14:57:39.989Z,2.35
2023-05-10T15:00:08.490Z,2.28
2023-05-10T15:02:36.524Z,2.42
2023-05-10T15:05:04.949Z,1.90
2023-05-10T15:07:32.982Z,2.17
2023-05-10T15:10:00.622Z,2.10
2023-05-10T15:12:28.344Z,2.00
2023-05-10T15:14:56.007Z,2.28
2023-05-10T15:17:23.764Z,2.05
2023-05-10T15:19:51.486Z,1.98
2023-05-10T15:22:19.184Z,2.35
2023-05-10T15:24:46.603Z,2.00
2023-05-10T15:27:14.119Z,2.05
2023-05-10T15:29:41.749Z,2.20
2023-05-10T15:32:09.164Z,2.03
2023-05-10T15:34:37.280Z,2.03
2023-05-10T15:37:04.674Z,2.42
2023-05-10T15:39:31.943Z,2.60
2023-05-10T15:41:59.466Z,2.20
2023-05-10T15:44:26.778Z,2.00
2023-05-10T15:46:54.131Z,2.22
2023-05-10T15:49:21.614Z,2.00
2023-05-10T15:51:49.640Z,1.95
2023-05-10T15:54:17.098Z,2.33
2023-05-10T15:56:44.946Z,2.17
2023-05-10T15:59:12.307Z,1.90
2023-05-10T16:01:39.906Z,2.40
2023-05-10T16:04:07.475Z,1.90
2023-05-10T16:06:36.249Z,2.40
2023-05-10T16:09:04.134Z,2.30
2023-05-10T16:11:31.692Z,2.97
2023-05-10T16:13:59.052Z,2.30
2023-05-10T16:16:26.798Z,2.10
2023-05-10T16:18:54.424Z,2.45
2023-05-10T16:21:22.631Z,2.50
2023-05-10T16:23:50.124Z,2.25
2023-05-10T16:26:17.732Z,2.42
2023-05-10T16:28:45.172Z,2.28
2023-05-10T16:31:12.908Z,2.50
2023-05-10T16:33:40.724Z,2.45
2023-05-10T16:36:08.228Z,2.25
2023-05-10T16:38:35.618Z,2.30
2023-05-10T16:41:03.810Z,2.15
2023-05-10T16:43:32.705Z,2.35
2023-05-10T16:46:00.393Z,2.53
2023-05-10T16:48:28.096Z,2.47
2023-05-10T16:50:55.741Z,2.03
2023-05-10T16:53:23.285Z,2.50
2023-05-10T16:55:50.998Z,2.13
2023-05-10T16:58:18.579Z,1.80
2023-05-10T17:00:47.057Z,2.03
2023-05-10T17:03:14.700Z,2.10
2023-05-10T17:05:43.315Z,1.90
2023-05-10T17:08:11.120Z,2.08
2023-05-10T17:10:41.795Z,2.42
2023-05-10T17:13:10.396Z,2.17
2023-05-10T17:15:39.343Z,2.17
2023-05-10T17:18:07.883Z,2.13
2023-05-10T17:20:36.200Z,1.80
2023-05-10T17:23:03.748Z,2.00
2023-05-10T17:25:31.357Z,2.40
2023-05-10T17:27:58.654Z,2.10
2023-05-10T17:30:28.465Z,2.00
2023-05-10T17:32:56.523Z,1.90
2023-05-10T17:35:24.374Z,2.30
2023-05-10T17:37:52.076Z,2.30
2023-05-10T17:40:19.614Z,2.03
2023-05-10T17:42:47.331Z,2.42
2023-05-10T17:45:15.689Z,2.35
2023-05-10T17:47:43.567Z,2.10
2023-05-10T17:50:11.435Z,2.00
2023-05-10T17:52:39.011Z,2.08
2023-05-10T17:55:07.010Z,2.33
2023-05-10T17:57:35.085Z,2.03
2023-05-10T18:00:04.104Z,2.20
2023-05-10T18:02:33.133Z,2.20
2023-05-10T18:05:02.046Z,2.53
2023-05-10T18:07:30.313Z,2.50
2023-05-10T18:09:58.775Z,2.25
2023-05-10T18:12:26.546Z,2.30
2023-05-10T18:14:53.940Z,2.13
2023-05-10T18:17:21.269Z,2.20
2023-05-10T18:19:52.704Z,2.30
2023-05-10T18:22:20.771Z,2.33
2023-05-10T18:24:48.339Z,2.55
2023-05-10T18:27:15.818Z,2.42
2023-05-10T18:29:43.289Z,2.30
2023-05-10T18:32:10.898Z,2.40
2023-05-10T18:34:38.325Z,2.58
2023-05-10T18:37:07.925Z,2.33
2023-05-10T18:39:37.686Z,2.40
2023-05-10T18:42:09.300Z,2.50
2023-05-10T18:44:37.078Z,2.28
2023-05-10T18:47:04.606Z,2.40
2023-05-10T18:49:32.437Z,2.50
2023-05-10T18:52:00.308Z,2.30
2023-05-10T18:54:27.947Z,2.47
2023-05-10T18:56:58.096Z,2.35
2023-05-10T18:59:26.008Z,2.40
2023-05-10T19:01:54.955Z,2.53
2023-05-10T19:06:51.912Z,2.85
2023-05-10T19:09:20.434Z,2.63
2023-05-10T19:11:48.883Z,2.67
2023-05-10T19:14:16.562Z,2.70
2023-05-10T19:16:44.579Z,2.33
2023-05-10T19:19:14.273Z,3.13
2023-05-10T19:21:43.047Z,3.10
2023-05-10T19:24:10.819Z,2.58
2023-05-10T19:26:38.522Z,2.60
2023-05-10T19:29:06.362Z,2.85
2023-05-10T19:32:13.445Z,2.63
2023-05-10T19:37:12.410Z,2.20
2023-05-10T19:39:40.031Z,2.90
2023-05-10T19:42:07.398Z,3.00
2023-05-10T19:44:35.293Z,2.90
2023-05-10T19:47:04.931Z,2.85
2023-05-10T19:49:32.362Z,3.40
2023-05-10T19:51:59.650Z,2.75
2023-05-10T19:54:27.122Z,2.78
2023-05-10T19:56:54.352Z,3.00
2023-05-10T19:59:21.812Z,3.30
2023-05-10T20:01:49.376Z,3.55
2023-05-10T20:04:16.917Z,3.10
2023-05-10T20:06:44.433Z,2.80
2023-05-10T20:09:11.873Z,2.97
2023-05-10T20:11:39.419Z,3.03
2023-05-10T20:14:06.712Z,2.95
2023-05-10T20:16:34.117Z,3.20
2023-05-10T20:19:01.703Z,3.13
2023-05-10T20:21:29.196Z,3.13
2023-05-10T20:23:56.976Z,3.40
2023-05-10T20:26:24.381Z,3.20
2023-05-10T20:28:51.778Z,3.20
2023-05-10T20:31:19.147Z,3.40
2023-05-10T20:33:46.562Z,3.15
2023-05-10T20:36:15.177Z,3.30
2023-05-10T20:38:42.488Z,3.42
2023-05-10T20:41:09.994Z,3.40
2023-05-10T20:43:37.965Z,3.40
2023-05-10T20:46:05.726Z,3.10
2023-05-10T20:48:33.384Z,3.05
2023-05-10T20:51:02.411Z,3.25
2023-05-10T20:53:30.064Z,3.20
2023-05-10T20:55:57.596Z,3.05
2023-05-10T20:58:24.982Z,3.13
2023-05-10T21:00:52.465Z,2.83
2023-05-10T21:03:19.922Z,2.95
2023-05-10T21:05:47.531Z,3.22
2023-05-10T21:08:15.057Z,3.38
2023-05-10T21:10:42.477Z,3.47
2023-05-10T21:13:09.940Z,3.30
2023-05-10T21:15:37.336Z,3.30
2023-05-10T21:18:05.229Z,3.10
2023-05-10T21:20:32.564Z,3.15
2023-05-10T21:22:59.897Z,3.38
2023-05-10T21:25:27.412Z,3.35
2023-05-10T21:27:55.366Z,2.65
2023-05-10T21:30:22.836Z,3.05
2023-05-10T21:32:50.176Z,2.70
2023-05-10T21:35:17.628Z,3.10
2023-05-10T21:37:44.878Z,3.03
2023-05-10T21:40:13.143Z,2.80
2023-05-10T21:42:40.581Z,3.08
2023-05-10T21:45:08.311Z,3.20
2023-05-10T21:47:35.754Z,3.20
2023-05-10T21:50:03.147Z,3.20
2023-05-10T21:52:30.440Z,2.97
2023-05-10T21:54:57.722Z,3.35
2023-05-10T21:57:25.274Z,3.30
2023-05-10T21:59:52.753Z,3.20
2023-05-10T22:02:20.198Z,3.00
2023-05-10T22:04:47.704Z,3.33
2023-05-10T22:07:17.240Z,2.90
2023-05-10T22:09:44.694Z,2.85
2023-05-10T22:12:13.050Z,3.08
2023-05-10T22:14:40.534Z,2.80
2023-05-10T22:17:08.344Z,3.08
2023-05-10T22:19:35.925Z,3.10
2023-05-10T22:22:03.766Z,3.10
2023-05-10T22:24:32.037Z,3.10
2023-05-10T22:26:59.673Z,3.35
2023-05-10T22:29:27.582Z,2.95
2023-05-10T22:31:55.071Z,2.75
2023-05-10T22:34:22.558Z,3.30
2023-05-10T22:36:50.703Z,3.03
2023-05-10T22:39:18.134Z,2.83
2023-05-10T22:41:45.437Z,3.15
2023-05-10T22:44:12.686Z,3.20
2023-05-10T22:46:40.302Z,3.38
2023-05-10T22:49:07.853Z,3.20
2023-05-10T22:51:35.463Z,3.17
2023-05-10T22:54:02.933Z,2.55
2023-05-10T22:56:31.407Z,3.25
2023-05-10T22:58:59.091Z,2.90
2023-05-10T23:01:26.580Z,3.33
2023-05-10T23:03:54.288Z,3.20
2023-05-10T23:06:21.473Z,3.05
2023-05-10T23:08:49.561Z,3.08
2023-05-10T23:11:17.346Z,2.95
2023-05-10T23:13:44.946Z,2.97
2023-05-10T23:16:12.450Z,3.05
2023-05-10T23:18:39.928Z,2.70
2023-05-10T23:21:07.304Z,3.15
2023-05-10T23:23:34.987Z,3.15
2023-05-10T23:26:02.619Z,2.92
2023-05-10T23:28:29.978Z,2.80
2023-05-10T23:30:58.757Z,2.85
2023-05-10T23:33:27.118Z,3.20
2023-05-10T23:35:55.399Z,2.92
2023-05-10T23:38:22.733Z,3.05
2023-05-10T23:40:50.951Z,3.38
2023-05-10T23:43:20.059Z,3.13
2023-05-10T23:45:55.458Z,3.00
2023-05-10T23:48:22.928Z,2.97
2023-05-10T23:50:50.366Z,2.95
2023-05-10T23:53:17.897Z,3.38
2023-05-10T23:55:45.922Z,2.90
2023-05-10T23:58:13.277Z,3.10
